Andrew J. Barberi — WYR3370 — position and weather

sailwx.info

Track history (hours):
 
Tides and Currents Weather Stations Pressure Air Temp Water Temp Dewpoint Dewpoint Depression Visibility Wind Speed Wind Dir Waves Ship Positions

Andrew J. Barberi

Owner: CITY OF NEW YORK, Brooklyn, NY. More information available from US FCC via Universal Licensing System and Coast Guard Vessel Documentation Center.

Last reported at 2015-Jan-25 15:33 UTC. Time now 2015-Jan-25 16:21 UTC.
Position N 40°39' W 074°04'.

Length 94 m; draft 4.3 m.

Type: Ship. MMSI: 367000150.

Date/timePositionNaut miles runAvg speedWind from/ knotsBaromVisibWave heightAir tempDewpointWater temp
2015-Jan-25 15:33N 40°39' W 074°04'0 0.0
2015-Jan-25 14:29N 40°39' W 074°04'0 0.0
2015-Jan-25 13:29N 40°39' W 074°04'0 0.0
2015-Jan-25 12:32N 40°39' W 074°04'0 0.0
2015-Jan-25 11:29N 40°39' W 074°04'0 0.0
2015-Jan-25 10:29N 40°39' W 074°04'0 0.0
2015-Jan-25 09:29N 40°39' W 074°04'0 0.0
2015-Jan-25 08:29N 40°39' W 074°04'0 0.0
2015-Jan-25 07:23N 40°39' W 074°04'0 0.0
2015-Jan-25 06:29N 40°39' W 074°04'0 0.0
2015-Jan-25 05:29N 40°39' W 074°04'0 0.0
2015-Jan-25 04:23N 40°39' W 074°04'0 0.0
2015-Jan-25 03:29N 40°39' W 074°04'0 0.0
2015-Jan-25 02:29N 40°39' W 074°04'0 0.0
2015-Jan-25 01:33N 40°39' W 074°04'0 0.1
2015-Jan-25 00:33N 40°39' W 074°04'0 0.5
2015-Jan-24 23:33N 40°39' W 074°04'0 0.2
2015-Jan-24 22:33N 40°39' W 074°04'0 0.2
2015-Jan-24 21:33N 40°39' W 074°04'0 0.0
2015-Jan-24 20:34N 40°39' W 074°04'0 0.1
2015-Jan-24 19:33N 40°39' W 074°04'4 3.6
2015-Jan-24 18:34N 40°42' W 074°01'4 4.0
2015-Jan-24 17:33N 40°39' W 074°04'0 0.1
2015-Jan-24 16:25N 40°39' W 074°04'0 0.1
2015-Jan-24 15:33N 40°39' W 074°04'0 0.0
2015-Jan-24 14:28N 40°39' W 074°04'0 0.0
2015-Jan-24 13:28N 40°39' W 074°04'0 0.0
2015-Jan-24 12:28N 40°39' W 074°04'0 0.0
2015-Jan-24 11:28N 40°39' W 074°04'0 0.0
2015-Jan-24 10:28N 40°39' W 074°04'0 0.0
2015-Jan-24 09:28N 40°39' W 074°04'0 0.0
2015-Jan-24 08:28N 40°39' W 074°04'0 0.0
2015-Jan-24 07:28N 40°39' W 074°04'0 0.0
2015-Jan-24 06:28N 40°39' W 074°04'0 0.0
2015-Jan-24 05:28N 40°39' W 074°04'0 0.1
2015-Jan-24 04:33N 40°39' W 074°04'0 0.2
2015-Jan-24 03:34N 40°39' W 074°04'4 3.9
2015-Jan-24 02:34N 40°42' W 074°01'4 4.2
2015-Jan-24 01:33N 40°39' W 074°04'4 3.9
2015-Jan-24 00:28N 40°42' W 074°01'0 0.0
2015-Jan-23 23:33N 40°42' W 074°01'0 0.2
2015-Jan-23 22:34N 40°42' W 074°01'1 1.5
2015-Jan-23 21:33N 40°41' W 074°02'3 2.4
2015-Jan-23 20:27N 40°39' W 074°04'0 0.1
2015-Jan-23 19:33N 40°39' W 074°04'0 0.2
2015-Jan-23 18:34N 40°39' W 074°04'4 3.8
2015-Jan-23 17:33N 40°42' W 074°01'4 4.1
2015-Jan-23 16:33N 40°39' W 074°04'0 0.0
2015-Jan-23 15:33N 40°39' W 074°04'4 4.1
2015-Jan-23 14:34N 40°42' W 074°01'0 0.1
2015-Jan-23 13:33N 40°42' W 074°01'0 0.1
2015-Jan-23 12:34N 40°42' W 074°01'0 0.2
2015-Jan-23 11:33N 40°42' W 074°01'4 4.1
2015-Jan-23 10:33N 40°39' W 074°04'0 0.0
2015-Jan-23 09:33N 40°39' W 074°04'0 0.0
2015-Jan-23 08:29N 40°39' W 074°04'0 0.0
2015-Jan-23 07:29N 40°39' W 074°04'0 0.0
2015-Jan-23 06:29N 40°39' W 074°04'0 0.0
2015-Jan-23 05:29N 40°39' W 074°04'0 0.0
2015-Jan-23 04:29N 40°39' W 074°04'0 0.0
2015-Jan-23 03:23N 40°39' W 074°04'0 0.1
2015-Jan-23 02:33N 40°39' W 074°04'4 4.2
2015-Jan-23 01:33N 40°42' W 074°01'4 3.9
2015-Jan-23 00:29N 40°39' W 074°04'0 0.0
2015-Jan-22 23:33N 40°39' W 074°04'0 0.3
2015-Jan-22 22:34N 40°39' W 074°04'4 3.9
2015-Jan-22 21:33N 40°42' W 074°01'0 0.2
2015-Jan-22 20:33N 40°42' W 074°01'4 4.2
2015-Jan-22 19:33N 40°39' W 074°04'0 0.1
2015-Jan-22 18:33N 40°39' W 074°04'0 0.1
2015-Jan-22 17:33N 40°39' W 074°04'0 0.0
2015-Jan-22 16:33N 40°39' W 074°04'0 0.0
2015-Jan-22 15:33N 40°39' W 074°04'4 4.3
2015-Jan-22 14:33N 40°42' W 074°01'0 0.2
2015-Jan-22 13:33N 40°42' W 074°01'0 0.0
2015-Jan-22 12:33N 40°42' W 074°01'0 0.1
2015-Jan-22 11:33N 40°42' W 074°01'4 4.5
2015-Jan-22 10:33N 40°38' W 074°04'1 0.5
2015-Jan-22 09:33N 40°39' W 074°04'0 0.0
2015-Jan-22 08:32N 40°39' W 074°04'0 0.0
2015-Jan-22 07:32N 40°39' W 074°04'0 0.0
2015-Jan-22 06:32N 40°39' W 074°04'0 0.0
2015-Jan-22 05:32N 40°39' W 074°04'0 0.0
2015-Jan-22 04:32N 40°39' W 074°04'0 0.0
2015-Jan-22 03:32N 40°39' W 074°04'0 0.1
2015-Jan-22 02:33N 40°39' W 074°04'4 4.1
2015-Jan-22 01:34N 40°42' W 074°01'4 4.1
2015-Jan-22 00:33N 40°39' W 074°04'0 0.1
2015-Jan-21 23:33N 40°39' W 074°04'4 5.7
2015-Jan-21 22:50N 40°42' W 074°01'111.7
2015-Jan-21 22:46N 40°41' W 074°02'314.2
2015-Jan-21 22:33N 40°39' W 074°04'4 4.0
2015-Jan-21 21:34N 40°42' W 074°01'0 0.1
2015-Jan-21 20:27N 40°42' W 074°01'4 4.1
2015-Jan-21 19:24N 40°39' W 074°04'0 0.1
2015-Jan-21 18:33N 40°39' W 074°04'4 3.8
2015-Jan-21 17:26N 40°42' W 074°01'4 5.0
2015-Jan-21 16:33N 40°39' W 074°04'0 0.2
2015-Jan-21 15:34N 40°39' W 074°04'4 4.1
2015-Jan-21 14:33N 40°42' W 074°01'0 0.0
2015-Jan-21 13:33N 40°42' W 074°01'0 0.1
2015-Jan-21 12:33N 40°42' W 074°01'0 0.0
2015-Jan-21 11:33N 40°42' W 074°01'4 4.2
2015-Jan-21 10:33N 40°39' W 074°04'0 0.0
2015-Jan-21 09:33N 40°39' W 074°04'0 0.0
2015-Jan-21 08:31N 40°39' W 074°04'0 0.0
2015-Jan-21 07:31N 40°39' W 074°04'0 0.0
2015-Jan-21 06:25N 40°39' W 074°04'0 0.0
2015-Jan-21 05:31N 40°39' W 074°04'0 0.0
2015-Jan-21 04:31N 40°39' W 074°04'0 0.0
2015-Jan-21 03:31N 40°39' W 074°04'0 0.0
2015-Jan-21 02:34N 40°39' W 074°04'4 4.2
2015-Jan-21 01:33N 40°42' W 074°01'4 4.0
2015-Jan-21 00:29N 40°39' W 074°04'0 0.0
2015-Jan-20 23:27N 40°39' W 074°04'0 0.0
2015-Jan-20 22:33N 40°39' W 074°04'4 4.2
2015-Jan-20 21:33N 40°42' W 074°01'0 0.1
2015-Jan-20 20:33N 40°42' W 074°01'4 3.5
2015-Jan-20 19:21N 40°39' W 074°04'0 0.3
2015-Jan-20 18:33N 40°39' W 074°04'4 4.1
2015-Jan-20 17:34N 40°42' W 074°01'0 0.0
2015-Jan-20 16:33N 40°42' W 074°01'4 4.3
2015-Jan-20 15:33N 40°39' W 074°04'4 4.3
2015-Jan-20 14:34N 40°42' W 074°01'0 0.0
2015-Jan-20 13:33N 40°42' W 074°01'0 0.0
2015-Jan-20 12:33N 40°42' W 074°01'0 0.2
2015-Jan-20 11:33N 40°42' W 074°01'4 4.1
2015-Jan-20 10:33N 40°39' W 074°04'0 0.0
2015-Jan-20 09:33N 40°39' W 074°04'0 0.0
2015-Jan-20 08:31N 40°39' W 074°04'0 0.0
2015-Jan-20 07:28N 40°39' W 074°04'0 0.0
2015-Jan-20 06:22N 40°39' W 074°04'0 0.0
2015-Jan-20 05:28N 40°39' W 074°04'0 0.0
2015-Jan-20 04:31N 40°39' W 074°04'0 0.0
2015-Jan-20 03:28N 40°39' W 074°04'0 0.2
2015-Jan-20 02:33N 40°39' W 074°04'4 4.2
2015-Jan-20 01:32N 40°42' W 074°01'4 4.3
2015-Jan-20 00:33N 40°39' W 074°04'0 0.3
2015-Jan-19 23:33N 40°39' W 074°04'0 0.2
2015-Jan-19 22:34N 40°39' W 074°04'4 3.8
2015-Jan-19 21:31N 40°42' W 074°01'0 0.0
2015-Jan-19 20:33N 40°42' W 074°01'4 3.9
2015-Jan-19 19:28N 40°39' W 074°04'0 0.2
2015-Jan-19 18:33N 40°39' W 074°04'4 4.1
2015-Jan-19 17:33N 40°42' W 074°01'4 4.3
2015-Jan-19 16:33N 40°39' W 074°04'0 0.2
2015-Jan-19 15:34N 40°39' W 074°04'4 4.0
2015-Jan-19 14:33N 40°42' W 074°01'0 0.0
2015-Jan-19 13:33N 40°42' W 074°01'0 0.1
2015-Jan-19 12:33N 40°42' W 074°01'0 0.1
2015-Jan-19 11:33N 40°42' W 074°01'4 4.2
2015-Jan-19 10:33N 40°39' W 074°04'0 0.0
2015-Jan-19 09:24N 40°39' W 074°04'0 0.0
2015-Jan-19 08:29N 40°39' W 074°04'0 0.0
2015-Jan-19 07:29N 40°39' W 074°04'0 0.0
2015-Jan-19 06:29N 40°39' W 074°04'0 0.0
2015-Jan-19 05:29N 40°39' W 074°04'0 0.0
2015-Jan-19 04:29N 40°39' W 074°04'0 0.0
2015-Jan-19 03:29N 40°39' W 074°04'0 0.0
2015-Jan-19 02:29N 40°39' W 074°04'1 1.0
2015-Jan-19 01:34N 40°38' W 074°04'1 0.9
2015-Jan-19 00:25N 40°39' W 074°04'0 0.3
2015-Jan-18 23:33N 40°39' W 074°04'0 0.3
2015-Jan-18 22:33N 40°39' W 074°04'4 3.8
2015-Jan-18 21:33N 40°42' W 074°01'4 3.5
2015-Jan-18 20:22N 40°39' W 074°04'0 0.3
2015-Jan-18 19:33N 40°39' W 074°04'4 4.0
2015-Jan-18 18:33N 40°42' W 074°01'4 3.5
2015-Jan-18 17:22N 40°39' W 074°04'0 0.3
2015-Jan-18 16:33N 40°39' W 074°04'0 0.3
2015-Jan-18 15:33N 40°39' W 074°04'0 0.0
2015-Jan-18 14:30N 40°39' W 074°04'0 0.0
2015-Jan-18 13:30N 40°39' W 074°04'0 0.0
2015-Jan-18 12:30N 40°39' W 074°04'0 0.0
2015-Jan-18 11:30N 40°39' W 074°04'0 0.0
2015-Jan-18 10:30N 40°39' W 074°04'0 0.0
2015-Jan-18 09:30N 40°39' W 074°04'0 0.0
2015-Jan-18 08:30N 40°39' W 074°04'0 0.0
2015-Jan-18 07:30N 40°39' W 074°04'0 0.0
2015-Jan-18 06:30N 40°39' W 074°04'0 0.0
2015-Jan-18 05:30N 40°39' W 074°04'0 0.0
2015-Jan-18 04:30N 40°39' W 074°04'0 0.0
2015-Jan-18 03:30N 40°39' W 074°04'0 0.0
2015-Jan-18 02:24N 40°39' W 074°04'0 0.0
2015-Jan-18 01:33N 40°39' W 074°04'0 0.1
2015-Jan-18 00:33N 40°39' W 074°04'0 0.1
2015-Jan-17 23:33N 40°39' W 074°04'0 0.0
2015-Jan-17 22:33N 40°39' W 074°04'0 0.2
2015-Jan-17 21:33N 40°39' W 074°04'0 0.1
2015-Jan-17 20:33N 40°39' W 074°04'0 0.1
2015-Jan-17 19:33N 40°39' W 074°04'4 4.0
2015-Jan-17 18:33N 40°42' W 074°01'4 3.6
2015-Jan-17 17:23N 40°39' W 074°04'0 0.4
2015-Jan-17 16:33N 40°39' W 074°04'0 0.4
2015-Jan-17 15:33N 40°39' W 074°04'0 0.0
2015-Jan-17 14:33N 40°39' W 074°04'0 0.0
2015-Jan-17 13:28N 40°39' W 074°04'0 0.0
2015-Jan-17 12:28N 40°39' W 074°04'0 0.0
2015-Jan-17 11:28N 40°39' W 074°04'0 0.0
2015-Jan-17 10:28N 40°39' W 074°04'0 0.0
2015-Jan-17 09:28N 40°39' W 074°04'0 0.0
2015-Jan-17 08:28N 40°39' W 074°04'0 0.0
2015-Jan-17 07:28N 40°39' W 074°04'0 0.0
2015-Jan-17 06:28N 40°39' W 074°04'0 0.0
2015-Jan-17 05:28N 40°39' W 074°04'0 0.0
2015-Jan-17 04:28N 40°39' W 074°04'0 0.0
2015-Jan-17 03:28N 40°39' W 074°04'0 0.0
2015-Jan-17 02:28N 40°39' W 074°04'4 2.1
2015-Jan-17 00:25N 40°42' W 074°01'0 0.1
2015-Jan-16 23:33N 40°42' W 074°01'0 0.1
2015-Jan-16 22:34N 40°42' W 074°01'0 0.1
2015-Jan-16 21:13N 40°42' W 074°01'4 5.5
2015-Jan-16 20:26N 40°39' W 074°04'0 0.2
2015-Jan-16 19:34N 40°39' W 074°04'0 0.1
2015-Jan-16 18:33N 40°39' W 074°04'0 0.2
2015-Jan-16 17:33N 40°39' W 074°04'0 0.2
2015-Jan-16 16:33N 40°39' W 074°04'0 0.2
2015-Jan-16 15:33N 40°39' W 074°04'4 4.1
2015-Jan-16 14:33N 40°42' W 074°01'0 0.1
2015-Jan-16 13:34N 40°42' W 074°01'0 0.1
2015-Jan-16 12:33N 40°42' W 074°01'0 0.1
2015-Jan-16 11:34N 40°42' W 074°01'4 4.0
2015-Jan-16 10:34N 40°39' W 074°04'0 0.0
2015-Jan-16 09:34N 40°39' W 074°04'0 0.0
2015-Jan-16 08:31N 40°39' W 074°04'0 0.0
2015-Jan-16 07:31N 40°39' W 074°04'0 0.0
2015-Jan-16 06:31N 40°39' W 074°04'0 0.0
2015-Jan-16 05:31N 40°39' W 074°04'0 0.0
2015-Jan-16 04:31N 40°39' W 074°04'0 0.0
2015-Jan-16 03:31N 40°39' W 074°04'0 0.1
2015-Jan-16 02:33N 40°39' W 074°04'4 4.3
2015-Jan-16 01:33N 40°42' W 074°01'4 4.3
2015-Jan-16 00:33N 40°39' W 074°04'0 0.1
2015-Jan-15 23:33N 40°39' W 074°04'0 0.0
2015-Jan-15 22:33N 40°39' W 074°04'4 4.3
2015-Jan-15 21:34N 40°42' W 074°01'0 0.2
2015-Jan-15 20:33N 40°42' W 074°01'4 3.6
2015-Jan-15 19:25N 40°39' W 074°04'0 0.1
2015-Jan-15 18:33N 40°39' W 074°04'0 0.1
2015-Jan-15 17:34N 40°39' W 074°04'0 0.0
2015-Jan-15 16:34N 40°39' W 074°04'0 0.3
2015-Jan-15 15:34N 40°39' W 074°04'  
Track history (hours):
 
Tides and Currents Weather Stations Pressure Air Temp Water Temp Dewpoint Dewpoint Depression Visibility Wind Speed Wind Dir Waves Ship Positions

Andrew J. Barberi

Owner: CITY OF NEW YORK, Brooklyn, NY. More information available from US FCC via Universal Licensing System and Coast Guard Vessel Documentation Center.

Last reported at 2015-Jan-25 15:33 UTC. Time now 2015-Jan-25 16:21 UTC.
Position N 40°39' W 074°04'.

Length 94 m; draft 4.3 m.

Type: Ship. MMSI: 367000150.

Date/timePositionNaut miles runAvg speedWind from/ knotsBaromVisibWave heightAir tempDewpointWater temp
2015-Jan-25 15:33N 40°39' W 074°04'0 0.0
2015-Jan-25 14:29N 40°39' W 074°04'0 0.0
2015-Jan-25 13:29N 40°39' W 074°04'0 0.0
2015-Jan-25 12:32N 40°39' W 074°04'0 0.0
2015-Jan-25 11:29N 40°39' W 074°04'0 0.0
2015-Jan-25 10:29N 40°39' W 074°04'0 0.0
2015-Jan-25 09:29N 40°39' W 074°04'0 0.0
2015-Jan-25 08:29N 40°39' W 074°04'0 0.0
2015-Jan-25 07:23N 40°39' W 074°04'0 0.0
2015-Jan-25 06:29N 40°39' W 074°04'0 0.0
2015-Jan-25 05:29N 40°39' W 074°04'0 0.0
2015-Jan-25 04:23N 40°39' W 074°04'0 0.0
2015-Jan-25 03:29N 40°39' W 074°04'0 0.0
2015-Jan-25 02:29N 40°39' W 074°04'0 0.0
2015-Jan-25 01:33N 40°39' W 074°04'0 0.1
2015-Jan-25 00:33N 40°39' W 074°04'0 0.5
2015-Jan-24 23:33N 40°39' W 074°04'0 0.2
2015-Jan-24 22:33N 40°39' W 074°04'0 0.2
2015-Jan-24 21:33N 40°39' W 074°04'0 0.0
2015-Jan-24 20:34N 40°39' W 074°04'0 0.1
2015-Jan-24 19:33N 40°39' W 074°04'4 3.6
2015-Jan-24 18:34N 40°42' W 074°01'4 4.0
2015-Jan-24 17:33N 40°39' W 074°04'0 0.1
2015-Jan-24 16:25N 40°39' W 074°04'0 0.1
2015-Jan-24 15:33N 40°39' W 074°04'0 0.0
2015-Jan-24 14:28N 40°39' W 074°04'0 0.0
2015-Jan-24 13:28N 40°39' W 074°04'0 0.0
2015-Jan-24 12:28N 40°39' W 074°04'0 0.0
2015-Jan-24 11:28N 40°39' W 074°04'0 0.0
2015-Jan-24 10:28N 40°39' W 074°04'0 0.0
2015-Jan-24 09:28N 40°39' W 074°04'0 0.0
2015-Jan-24 08:28N 40°39' W 074°04'0 0.0
2015-Jan-24 07:28N 40°39' W 074°04'0 0.0
2015-Jan-24 06:28N 40°39' W 074°04'0 0.0
2015-Jan-24 05:28N 40°39' W 074°04'0 0.1
2015-Jan-24 04:33N 40°39' W 074°04'0 0.2
2015-Jan-24 03:34N 40°39' W 074°04'4 3.9
2015-Jan-24 02:34N 40°42' W 074°01'4 4.2
2015-Jan-24 01:33N 40°39' W 074°04'4 3.9
2015-Jan-24 00:28N 40°42' W 074°01'0 0.0
2015-Jan-23 23:33N 40°42' W 074°01'0 0.2
2015-Jan-23 22:34N 40°42' W 074°01'1 1.5
2015-Jan-23 21:33N 40°41' W 074°02'3 2.4
2015-Jan-23 20:27N 40°39' W 074°04'0 0.1
2015-Jan-23 19:33N 40°39' W 074°04'0 0.2
2015-Jan-23 18:34N 40°39' W 074°04'4 3.8
2015-Jan-23 17:33N 40°42' W 074°01'4 4.1
2015-Jan-23 16:33N 40°39' W 074°04'0 0.0
2015-Jan-23 15:33N 40°39' W 074°04'4 4.1
2015-Jan-23 14:34N 40°42' W 074°01'0 0.1
2015-Jan-23 13:33N 40°42' W 074°01'0 0.1
2015-Jan-23 12:34N 40°42' W 074°01'0 0.2
2015-Jan-23 11:33N 40°42' W 074°01'4 4.1
2015-Jan-23 10:33N 40°39' W 074°04'0 0.0
2015-Jan-23 09:33N 40°39' W 074°04'0 0.0
2015-Jan-23 08:29N 40°39' W 074°04'0 0.0
2015-Jan-23 07:29N 40°39' W 074°04'0 0.0
2015-Jan-23 06:29N 40°39' W 074°04'0 0.0
2015-Jan-23 05:29N 40°39' W 074°04'0 0.0
2015-Jan-23 04:29N 40°39' W 074°04'0 0.0
2015-Jan-23 03:23N 40°39' W 074°04'0 0.1
2015-Jan-23 02:33N 40°39' W 074°04'4 4.2
2015-Jan-23 01:33N 40°42' W 074°01'4 3.9
2015-Jan-23 00:29N 40°39' W 074°04'0 0.0
2015-Jan-22 23:33N 40°39' W 074°04'0 0.3
2015-Jan-22 22:34N 40°39' W 074°04'4 3.9
2015-Jan-22 21:33N 40°42' W 074°01'0 0.2
2015-Jan-22 20:33N 40°42' W 074°01'4 4.2
2015-Jan-22 19:33N 40°39' W 074°04'0 0.1
2015-Jan-22 18:33N 40°39' W 074°04'0 0.1
2015-Jan-22 17:33N 40°39' W 074°04'0 0.0
2015-Jan-22 16:33N 40°39' W 074°04'0 0.0
2015-Jan-22 15:33N 40°39' W 074°04'4 4.3
2015-Jan-22 14:33N 40°42' W 074°01'0 0.2
2015-Jan-22 13:33N 40°42' W 074°01'0 0.0
2015-Jan-22 12:33N 40°42' W 074°01'0 0.1
2015-Jan-22 11:33N 40°42' W 074°01'4 4.5
2015-Jan-22 10:33N 40°38' W 074°04'1 0.5
2015-Jan-22 09:33N 40°39' W 074°04'0 0.0
2015-Jan-22 08:32N 40°39' W 074°04'0 0.0
2015-Jan-22 07:32N 40°39' W 074°04'0 0.0
2015-Jan-22 06:32N 40°39' W 074°04'0 0.0
2015-Jan-22 05:32N 40°39' W 074°04'0 0.0
2015-Jan-22 04:32N 40°39' W 074°04'0 0.0
2015-Jan-22 03:32N 40°39' W 074°04'0 0.1
2015-Jan-22 02:33N 40°39' W 074°04'4 4.1
2015-Jan-22 01:34N 40°42' W 074°01'4 4.1
2015-Jan-22 00:33N 40°39' W 074°04'0 0.1
2015-Jan-21 23:33N 40°39' W 074°04'4 5.7
2015-Jan-21 22:50N 40°42' W 074°01'111.7
2015-Jan-21 22:46N 40°41' W 074°02'314.2
2015-Jan-21 22:33N 40°39' W 074°04'4 4.0
2015-Jan-21 21:34N 40°42' W 074°01'0 0.1
2015-Jan-21 20:27N 40°42' W 074°01'4 4.1
2015-Jan-21 19:24N 40°39' W 074°04'0 0.1
2015-Jan-21 18:33N 40°39' W 074°04'4 3.8
2015-Jan-21 17:26N 40°42' W 074°01'4 5.0
2015-Jan-21 16:33N 40°39' W 074°04'0 0.2
2015-Jan-21 15:34N 40°39' W 074°04'4 4.1
2015-Jan-21 14:33N 40°42' W 074°01'0 0.0
2015-Jan-21 13:33N 40°42' W 074°01'0 0.1
2015-Jan-21 12:33N 40°42' W 074°01'0 0.0
2015-Jan-21 11:33N 40°42' W 074°01'4 4.2
2015-Jan-21 10:33N 40°39' W 074°04'0 0.0
2015-Jan-21 09:33N 40°39' W 074°04'0 0.0
2015-Jan-21 08:31N 40°39' W 074°04'0 0.0
2015-Jan-21 07:31N 40°39' W 074°04'0 0.0
2015-Jan-21 06:25N 40°39' W 074°04'0 0.0
2015-Jan-21 05:31N 40°39' W 074°04'0 0.0
2015-Jan-21 04:31N 40°39' W 074°04'0 0.0
2015-Jan-21 03:31N 40°39' W 074°04'0 0.0
2015-Jan-21 02:34N 40°39' W 074°04'4 4.2
2015-Jan-21 01:33N 40°42' W 074°01'4 4.0
2015-Jan-21 00:29N 40°39' W 074°04'0 0.0
2015-Jan-20 23:27N 40°39' W 074°04'0 0.0
2015-Jan-20 22:33N 40°39' W 074°04'4 4.2
2015-Jan-20 21:33N 40°42' W 074°01'0 0.1
2015-Jan-20 20:33N 40°42' W 074°01'4 3.5
2015-Jan-20 19:21N 40°39' W 074°04'0 0.3
2015-Jan-20 18:33N 40°39' W 074°04'4 4.1
2015-Jan-20 17:34N 40°42' W 074°01'0 0.0
2015-Jan-20 16:33N 40°42' W 074°01'4 4.3
2015-Jan-20 15:33N 40°39' W 074°04'4 4.3
2015-Jan-20 14:34N 40°42' W 074°01'0 0.0
2015-Jan-20 13:33N 40°42' W 074°01'0 0.0
2015-Jan-20 12:33N 40°42' W 074°01'0 0.2
2015-Jan-20 11:33N 40°42' W 074°01'4 4.1
2015-Jan-20 10:33N 40°39' W 074°04'0 0.0
2015-Jan-20 09:33N 40°39' W 074°04'0 0.0
2015-Jan-20 08:31N 40°39' W 074°04'0 0.0
2015-Jan-20 07:28N 40°39' W 074°04'0 0.0
2015-Jan-20 06:22N 40°39' W 074°04'0 0.0
2015-Jan-20 05:28N 40°39' W 074°04'0 0.0
2015-Jan-20 04:31N 40°39' W 074°04'0 0.0
2015-Jan-20 03:28N 40°39' W 074°04'0 0.2
2015-Jan-20 02:33N 40°39' W 074°04'4 4.2
2015-Jan-20 01:32N 40°42' W 074°01'4 4.3
2015-Jan-20 00:33N 40°39' W 074°04'0 0.3
2015-Jan-19 23:33N 40°39' W 074°04'0 0.2
2015-Jan-19 22:34N 40°39' W 074°04'4 3.8
2015-Jan-19 21:31N 40°42' W 074°01'0 0.0
2015-Jan-19 20:33N 40°42' W 074°01'4 3.9
2015-Jan-19 19:28N 40°39' W 074°04'0 0.2
2015-Jan-19 18:33N 40°39' W 074°04'4 4.1
2015-Jan-19 17:33N 40°42' W 074°01'4 4.3
2015-Jan-19 16:33N 40°39' W 074°04'0 0.2
2015-Jan-19 15:34N 40°39' W 074°04'4 4.0
2015-Jan-19 14:33N 40°42' W 074°01'0 0.0
2015-Jan-19 13:33N 40°42' W 074°01'0 0.1
2015-Jan-19 12:33N 40°42' W 074°01'0 0.1
2015-Jan-19 11:33N 40°42' W 074°01'4 4.2
2015-Jan-19 10:33N 40°39' W 074°04'0 0.0
2015-Jan-19 09:24N 40°39' W 074°04'0 0.0
2015-Jan-19 08:29N 40°39' W 074°04'0 0.0
2015-Jan-19 07:29N 40°39' W 074°04'0 0.0
2015-Jan-19 06:29N 40°39' W 074°04'0 0.0
2015-Jan-19 05:29N 40°39' W 074°04'0 0.0
2015-Jan-19 04:29N 40°39' W 074°04'0 0.0
2015-Jan-19 03:29N 40°39' W 074°04'0 0.0
2015-Jan-19 02:29N 40°39' W 074°04'1 1.0
2015-Jan-19 01:34N 40°38' W 074°04'1 0.9
2015-Jan-19 00:25N 40°39' W 074°04'0 0.3
2015-Jan-18 23:33N 40°39' W 074°04'0 0.3
2015-Jan-18 22:33N 40°39' W 074°04'4 3.8
2015-Jan-18 21:33N 40°42' W 074°01'4 3.5
2015-Jan-18 20:22N 40°39' W 074°04'0 0.3
2015-Jan-18 19:33N 40°39' W 074°04'4 4.0
2015-Jan-18 18:33N 40°42' W 074°01'4 3.5
2015-Jan-18 17:22N 40°39' W 074°04'0 0.3
2015-Jan-18 16:33N 40°39' W 074°04'0 0.3
2015-Jan-18 15:33N 40°39' W 074°04'0 0.0
2015-Jan-18 14:30N 40°39' W 074°04'0 0.0
2015-Jan-18 13:30N 40°39' W 074°04'0 0.0
2015-Jan-18 12:30N 40°39' W 074°04'0 0.0
2015-Jan-18 11:30N 40°39' W 074°04'0 0.0
2015-Jan-18 10:30N 40°39' W 074°04'0 0.0
2015-Jan-18 09:30N 40°39' W 074°04'0 0.0
2015-Jan-18 08:30N 40°39' W 074°04'0 0.0
2015-Jan-18 07:30N 40°39' W 074°04'0 0.0
2015-Jan-18 06:30N 40°39' W 074°04'0 0.0
2015-Jan-18 05:30N 40°39' W 074°04'0 0.0
2015-Jan-18 04:30N 40°39' W 074°04'0 0.0
2015-Jan-18 03:30N 40°39' W 074°04'0 0.0
2015-Jan-18 02:24N 40°39' W 074°04'0 0.0
2015-Jan-18 01:33N 40°39' W 074°04'0 0.1
2015-Jan-18 00:33N 40°39' W 074°04'0 0.1
2015-Jan-17 23:33N 40°39' W 074°04'0 0.0
2015-Jan-17 22:33N 40°39' W 074°04'0 0.2
2015-Jan-17 21:33N 40°39' W 074°04'0 0.1
2015-Jan-17 20:33N 40°39' W 074°04'0 0.1
2015-Jan-17 19:33N 40°39' W 074°04'4 4.0
2015-Jan-17 18:33N 40°42' W 074°01'4 3.6
2015-Jan-17 17:23N 40°39' W 074°04'0 0.4
2015-Jan-17 16:33N 40°39' W 074°04'0 0.4
2015-Jan-17 15:33N 40°39' W 074°04'0 0.0
2015-Jan-17 14:33N 40°39' W 074°04'0 0.0
2015-Jan-17 13:28N 40°39' W 074°04'0 0.0
2015-Jan-17 12:28N 40°39' W 074°04'0 0.0
2015-Jan-17 11:28N 40°39' W 074°04'0 0.0
2015-Jan-17 10:28N 40°39' W 074°04'0 0.0
2015-Jan-17 09:28N 40°39' W 074°04'0 0.0
2015-Jan-17 08:28N 40°39' W 074°04'0 0.0
2015-Jan-17 07:28N 40°39' W 074°04'0 0.0
2015-Jan-17 06:28N 40°39' W 074°04'0 0.0
2015-Jan-17 05:28N 40°39' W 074°04'0 0.0
2015-Jan-17 04:28N 40°39' W 074°04'0 0.0
2015-Jan-17 03:28N 40°39' W 074°04'0 0.0
2015-Jan-17 02:28N 40°39' W 074°04'4 2.1
2015-Jan-17 00:25N 40°42' W 074°01'0 0.1
2015-Jan-16 23:33N 40°42' W 074°01'0 0.1
2015-Jan-16 22:34N 40°42' W 074°01'0 0.1
2015-Jan-16 21:13N 40°42' W 074°01'4 5.5
2015-Jan-16 20:26N 40°39' W 074°04'0 0.2
2015-Jan-16 19:34N 40°39' W 074°04'0 0.1
2015-Jan-16 18:33N 40°39' W 074°04'0 0.2
2015-Jan-16 17:33N 40°39' W 074°04'0 0.2
2015-Jan-16 16:33N 40°39' W 074°04'0 0.2
2015-Jan-16 15:33N 40°39' W 074°04'4 4.1
2015-Jan-16 14:33N 40°42' W 074°01'0 0.1
2015-Jan-16 13:34N 40°42' W 074°01'0 0.1
2015-Jan-16 12:33N 40°42' W 074°01'0 0.1
2015-Jan-16 11:34N 40°42' W 074°01'4 4.0
2015-Jan-16 10:34N 40°39' W 074°04'0 0.0
2015-Jan-16 09:34N 40°39' W 074°04'0 0.0
2015-Jan-16 08:31N 40°39' W 074°04'0 0.0
2015-Jan-16 07:31N 40°39' W 074°04'0 0.0
2015-Jan-16 06:31N 40°39' W 074°04'0 0.0
2015-Jan-16 05:31N 40°39' W 074°04'0 0.0
2015-Jan-16 04:31N 40°39' W 074°04'0 0.0
2015-Jan-16 03:31N 40°39' W 074°04'0 0.1
2015-Jan-16 02:33N 40°39' W 074°04'4 4.3
2015-Jan-16 01:33N 40°42' W 074°01'4 4.3
2015-Jan-16 00:33N 40°39' W 074°04'0 0.1
2015-Jan-15 23:33N 40°39' W 074°04'0 0.0
2015-Jan-15 22:33N 40°39' W 074°04'4 4.3
2015-Jan-15 21:34N 40°42' W 074°01'0 0.2
2015-Jan-15 20:33N 40°42' W 074°01'4 3.6
2015-Jan-15 19:25N 40°39' W 074°04'0 0.1
2015-Jan-15 18:33N 40°39' W 074°04'0 0.1
2015-Jan-15 17:34N 40°39' W 074°04'0 0.0
2015-Jan-15 16:34N 40°39' W 074°04'0 0.3
2015-Jan-15 15:34N 40°39' W 074°04'  

Dump ship's entire track history